sensor_id;sensor_type;location;lat;lon;timestamp;pressure;altitude;pressure_sealevel;temperature;humidity
20350;BME280;10332;50.208;18.988;2022-09-09T00:00:15;97704.94;;;19.02;100.00
20350;BME280;10332;50.208;18.988;2022-09-09T00:03:27;97692.88;;;18.91;100.00
20350;BME280;10332;50.208;18.988;2022-09-09T00:06:16;97689.59;;;18.89;100.00
20350;BME280;10332;50.208;18.988;2022-09-09T00:09:17;97696.53;;;18.82;100.00
20350;BME280;10332;50.208;18.988;2022-09-09T00:11:55;97693.06;;;18.81;100.00
20350;BME280;10332;50.208;18.988;2022-09-09T00:15:25;97693.22;;;18.71;100.00
20350;BME280;10332;50.208;18.988;2022-09-09T00:18:11;97696.34;;;18.67;100.00
20350;BME280;10332;50.208;18.988;2022-09-09T00:21:08;97695.69;;;18.65;100.00
20350;BME280;10332;50.208;18.988;2022-09-09T00:23:40;97694.38;;;18.61;100.00
20350;BME280;10332;50.208;18.988;2022-09-09T00:26:21;97700.78;;;18.58;100.00
20350;BME280;10332;50.208;18.988;2022-09-09T00:31:35;97703.94;;;18.54;100.00
20350;BME280;10332;50.208;18.988;2022-09-09T00:34:23;97706.06;;;18.50;100.00
20350;BME280;10332;50.208;18.988;2022-09-09T00:36:53;97701.78;;;18.49;100.00
20350;BME280;10332;50.208;18.988;2022-09-09T00:39:39;97701.28;;;18.46;100.00
20350;BME280;10332;50.208;18.988;2022-09-09T00:42:24;97706.38;;;18.39;100.00
20350;BME280;10332;50.208;18.988;2022-09-09T00:45:50;97704.91;;;18.36;100.00
20350;BME280;10332;50.208;18.988;2022-09-09T00:48:35;97701.94;;;18.39;100.00
20350;BME280;10332;50.208;18.988;2022-09-09T00:51:38;97709.84;;;18.31;100.00
20350;BME280;10332;50.208;18.988;2022-09-09T00:54:40;97715.94;;;18.32;100.00
20350;BME280;10332;50.208;18.988;2022-09-09T00:57:27;97717.44;;;18.26;100.00
20350;BME280;10332;50.208;18.988;2022-09-09T01:06:31;97728.31;;;18.07;100.00
20350;BME280;10332;50.208;18.988;2022-09-09T01:09:24;97729.59;;;18.03;100.00
20350;BME280;10332;50.208;18.988;2022-09-09T01:17:19;97738.50;;;18.02;100.00
20350;BME280;10332;50.208;18.988;2022-09-09T01:20:37;97735.50;;;17.97;100.00
20350;BME280;10332;50.208;18.988;2022-09-09T01:23:25;97744.13;;;17.99;100.00
20350;BME280;10332;50.208;18.988;2022-09-09T01:26:18;97749.22;;;17.92;100.00
20350;BME280;10332;50.208;18.988;2022-09-09T01:28:49;97733.38;;;17.92;100.00
20350;BME280;10332;50.208;18.988;2022-09-09T01:31:28;97744.09;;;17.91;100.00
20350;BME280;10332;50.208;18.988;2022-09-09T01:33:57;97747.06;;;17.96;100.00
20350;BME280;10332;50.208;18.988;2022-09-09T01:36:38;97744.44;;;17.96;100.00
20350;BME280;10332;50.208;18.988;2022-09-09T01:39:08;97738.16;;;17.97;100.00
20350;BME280;10332;50.208;18.988;2022-09-09T01:41:36;97744.25;;;17.89;100.00
20350;BME280;10332;50.208;18.988;2022-09-09T01:44:05;97749.38;;;17.91;100.00
20350;BME280;10332;50.208;18.988;2022-09-09T01:46:34;97750.16;;;17.83;100.00
20350;BME280;10332;50.208;18.988;2022-09-09T01:49:06;97753.31;;;17.86;100.00
20350;BME280;10332;50.208;18.988;2022-09-09T01:51:36;97754.47;;;17.84;100.00
20350;BME280;10332;50.208;18.988;2022-09-09T01:54:05;97750.16;;;17.83;100.00
20350;BME280;10332;50.208;18.988;2022-09-09T01:56:54;97757.59;;;17.79;100.00
20350;BME280;10332;50.208;18.988;2022-09-09T02:00:08;97753.97;;;17.80;100.00
20350;BME280;10332;50.208;18.988;2022-09-09T02:05:39;97751.28;;;17.72;100.00
20350;BME280;10332;50.208;18.988;2022-09-09T02:10:53;97760.84;;;17.73;100.00
20350;BME280;10332;50.208;18.988;2022-09-09T02:13:22;97756.41;;;17.74;100.00
20350;BME280;10332;50.208;18.988;2022-09-09T02:16:00;97770.03;;;17.69;100.00
20350;BME280;10332;50.208;18.988;2022-09-09T02:18:38;97759.38;;;17.79;100.00
20350;BME280;10332;50.208;18.988;2022-09-09T02:21:09;97771.41;;;17.73;100.00
20350;BME280;10332;50.208;18.988;2022-09-09T02:23:42;97766.13;;;17.73;100.00
20350;BME280;10332;50.208;18.988;2022-09-09T02:26:13;97774.72;;;17.75;100.00
20350;BME280;10332;50.208;18.988;2022-09-09T02:28:51;97771.72;;;17.70;100.00
20350;BME280;10332;50.208;18.988;2022-09-09T02:31:24;97777.44;;;17.66;100.00
20350;BME280;10332;50.208;18.988;2022-09-09T02:33:58;97773.31;;;17.63;100.00
20350;BME280;10332;50.208;18.988;2022-09-09T02:36:31;97779.88;;;17.59;100.00
20350;BME280;10332;50.208;18.988;2022-09-09T02:39:01;97779.69;;;17.52;100.00
20350;BME280;10332;50.208;18.988;2022-09-09T02:41:39;97785.25;;;17.49;100.00
20350;BME280;10332;50.208;18.988;2022-09-09T02:44:16;97783.78;;;17.47;100.00
20350;BME280;10332;50.208;18.988;2022-09-09T02:47:20;97786.41;;;17.47;100.00
20350;BME280;10332;50.208;18.988;2022-09-09T02:50:13;97795.66;;;17.51;100.00
20350;BME280;10332;50.208;18.988;2022-09-09T02:52:54;97794.53;;;17.53;100.00
20350;BME280;10332;50.208;18.988;2022-09-09T02:55:54;97781.94;;;17.47;100.00
20350;BME280;10332;50.208;18.988;2022-09-09T02:58:25;97796.44;;;17.43;100.00
20350;BME280;10332;50.208;18.988;2022-09-09T03:00:53;97789.66;;;17.41;100.00
20350;BME280;10332;50.208;18.988;2022-09-09T03:03:20;97798.22;;;17.35;100.00
20350;BME280;10332;50.208;18.988;2022-09-09T03:05:49;97795.25;;;17.38;100.00
20350;BME280;10332;50.208;18.988;2022-09-09T03:08:17;97805.44;;;17.33;100.00
20350;BME280;10332;50.208;18.988;2022-09-09T03:10:44;97804.91;;;17.29;100.00
20350;BME280;10332;50.208;18.988;2022-09-09T03:13:12;97813.00;;;17.27;100.00
20350;BME280;10332;50.208;18.988;2022-09-09T03:15:42;97808.72;;;17.26;100.00
20350;BME280;10332;50.208;18.988;2022-09-09T03:18:10;97811.78;;;17.22;100.00
20350;BME280;10332;50.208;18.988;2022-09-09T03:20:37;97806.66;;;17.20;100.00
20350;BME280;10332;50.208;18.988;2022-09-09T03:23:05;97802.53;;;17.18;100.00
20350;BME280;10332;50.208;18.988;2022-09-09T03:25:32;97801.16;;;17.14;100.00
20350;BME280;10332;50.208;18.988;2022-09-09T03:28:01;97806.09;;;17.09;100.00
20350;BME280;10332;50.208;18.988;2022-09-09T03:30:28;97809.31;;;17.02;100.00
20350;BME280;10332;50.208;18.988;2022-09-09T03:32:56;97813.94;;;17.00;100.00
20350;BME280;10332;50.208;18.988;2022-09-09T03:35:24;97810.41;;;16.92;100.00
20350;BME280;10332;50.208;18.988;2022-09-09T03:37:52;97821.63;;;16.94;100.00
20350;BME280;10332;50.208;18.988;2022-09-09T03:40:19;97818.59;;;16.89;100.00
20350;BME280;10332;50.208;18.988;2022-09-09T03:42:47;97821.53;;;16.86;100.00
20350;BME280;10332;50.208;18.988;2022-09-09T03:45:15;97828.78;;;16.84;100.00
20350;BME280;10332;50.208;18.988;2022-09-09T03:47:44;97818.16;;;16.76;100.00
20350;BME280;10332;50.208;18.988;2022-09-09T03:50:11;97824.50;;;16.83;100.00
20350;BME280;10332;50.208;18.988;2022-09-09T03:52:40;97822.84;;;16.82;100.00
20350;BME280;10332;50.208;18.988;2022-09-09T03:55:09;97824.31;;;16.84;100.00
20350;BME280;10332;50.208;18.988;2022-09-09T03:57:37;97826.44;;;16.81;100.00
20350;BME280;10332;50.208;18.988;2022-09-09T04:00:07;97831.25;;;16.85;100.00
20350;BME280;10332;50.208;18.988;2022-09-09T04:02:34;97820.03;;;16.83;100.00
20350;BME280;10332;50.208;18.988;2022-09-09T04:05:02;97823.50;;;16.84;100.00
20350;BME280;10332;50.208;18.988;2022-09-09T04:07:29;97828.09;;;16.82;100.00
20350;BME280;10332;50.208;18.988;2022-09-09T04:09:56;97824.25;;;16.76;100.00
20350;BME280;10332;50.208;18.988;2022-09-09T04:12:24;97831.47;;;16.74;100.00
20350;BME280;10332;50.208;18.988;2022-09-09T04:14:51;97832.00;;;16.78;100.00
20350;BME280;10332;50.208;18.988;2022-09-09T04:17:18;97834.28;;;16.72;100.00
20350;BME280;10332;50.208;18.988;2022-09-09T04:19:46;97836.22;;;16.70;100.00
20350;BME280;10332;50.208;18.988;2022-09-09T04:22:13;97833.56;;;16.70;100.00
20350;BME280;10332;50.208;18.988;2022-09-09T04:24:41;97832.47;;;16.73;100.00
20350;BME280;10332;50.208;18.988;2022-09-09T04:27:14;97837.00;;;16.81;100.00
20350;BME280;10332;50.208;18.988;2022-09-09T04:29:41;97837.28;;;16.78;100.00
20350;BME280;10332;50.208;18.988;2022-09-09T04:32:09;97837.28;;;16.78;100.00
20350;BME280;10332;50.208;18.988;2022-09-09T04:34:36;97833.97;;;16.76;100.00
20350;BME280;10332;50.208;18.988;2022-09-09T04:37:04;97831.19;;;16.77;100.00
20350;BME280;10332;50.208;18.988;2022-09-09T04:39:31;97833.97;;;16.76;100.00
20350;BME280;10332;50.208;18.988;2022-09-09T04:41:59;97842.94;;;16.83;100.00
20350;BME280;10332;50.208;18.988;2022-09-09T04:44:26;97840.16;;;16.84;100.00
20350;BME280;10332;50.208;18.988;2022-09-09T04:46:53;97841.13;;;16.83;100.00
20350;BME280;10332;50.208;18.988;2022-09-09T04:49:20;97848.28;;;16.91;100.00
20350;BME280;10332;50.208;18.988;2022-09-09T04:51:49;97853.19;;;17.03;100.00
20350;BME280;10332;50.208;18.988;2022-09-09T04:54:16;97842.31;;;17.07;100.00
20350;BME280;10332;50.208;18.988;2022-09-09T04:56:44;97844.53;;;17.11;100.00
20350;BME280;10332;50.208;18.988;2022-09-09T04:59:11;97848.66;;;17.14;100.00
20350;BME280;10332;50.208;18.988;2022-09-09T05:01:38;97847.66;;;17.15;100.00
20350;BME280;10332;50.208;18.988;2022-09-09T05:04:06;97853.34;;;17.20;100.00
20350;BME280;10332;50.208;18.988;2022-09-09T05:06:34;97853.03;;;17.23;100.00
20350;BME280;10332;50.208;18.988;2022-09-09T05:09:03;97857.69;;;17.29;100.00
20350;BME280;10332;50.208;18.988;2022-09-09T05:11:32;97849.03;;;17.37;100.00
20350;BME280;10332;50.208;18.988;2022-09-09T05:14:03;97858.94;;;17.43;100.00
20350;BME280;10332;50.208;18.988;2022-09-09T05:16:31;97860.66;;;17.52;100.00
20350;BME280;10332;50.208;18.988;2022-09-09T05:18:58;97864.84;;;17.54;100.00
20350;BME280;10332;50.208;18.988;2022-09-09T05:21:26;97861.13;;;17.47;100.00
20350;BME280;10332;50.208;18.988;2022-09-09T05:23:53;97865.34;;;17.58;100.00
20350;BME280;10332;50.208;18.988;2022-09-09T05:26:22;97873.16;;;17.68;100.00
20350;BME280;10332;50.208;18.988;2022-09-09T05:28:49;97880.91;;;17.69;100.00
20350;BME280;10332;50.208;18.988;2022-09-09T05:31:18;97876.44;;;17.79;100.00
20350;BME280;10332;50.208;18.988;2022-09-09T05:33:48;97879.84;;;17.72;100.00
20350;BME280;10332;50.208;18.988;2022-09-09T05:36:21;97879.69;;;17.73;100.00
20350;BME280;10332;50.208;18.988;2022-09-09T05:38:50;97880.84;;;17.79;100.00
20350;BME280;10332;50.208;18.988;2022-09-09T05:41:18;97882.72;;;17.86;100.00
20350;BME280;10332;50.208;18.988;2022-09-09T05:43:46;97880.56;;;17.82;100.00
20350;BME280;10332;50.208;18.988;2022-09-09T05:46:22;97886.44;;;17.76;100.00
20350;BME280;10332;50.208;18.988;2022-09-09T05:48:51;97878.38;;;17.77;100.00
20350;BME280;10332;50.208;18.988;2022-09-09T05:51:22;97877.59;;;17.85;100.00
20350;BME280;10332;50.208;18.988;2022-09-09T05:53:51;97877.09;;;17.81;100.00
20350;BME280;10332;50.208;18.988;2022-09-09T05:56:22;97875.13;;;17.83;100.00
20350;BME280;10332;50.208;18.988;2022-09-09T05:58:53;97877.75;;;17.83;100.00
20350;BME280;10332;50.208;18.988;2022-09-09T06:01:33;97887.56;;;17.91;100.00
20350;BME280;10332;50.208;18.988;2022-09-09T06:04:01;97892.25;;;18.05;100.00
20350;BME280;10332;50.208;18.988;2022-09-09T06:06:36;97886.13;;;18.05;100.00
20350;BME280;10332;50.208;18.988;2022-09-09T06:09:06;97883.53;;;18.13;100.00
20350;BME280;10332;50.208;18.988;2022-09-09T06:11:39;97880.06;;;18.12;100.00
20350;BME280;10332;50.208;18.988;2022-09-09T06:14:07;97876.47;;;18.22;100.00
20350;BME280;10332;50.208;18.988;2022-09-09T06:16:35;97885.66;;;18.35;100.00
20350;BME280;10332;50.208;18.988;2022-09-09T06:19:04;97885.69;;;18.43;100.00
20350;BME280;10332;50.208;18.988;2022-09-09T06:21:37;97883.06;;;18.52;100.00
20350;BME280;10332;50.208;18.988;2022-09-09T06:24:05;97882.78;;;18.63;100.00
20350;BME280;10332;50.208;18.988;2022-09-09T06:26:35;97899.03;;;18.76;100.00
20350;BME280;10332;50.208;18.988;2022-09-09T06:29:04;97890.13;;;18.85;100.00
20350;BME280;10332;50.208;18.988;2022-09-09T06:31:34;97891.50;;;18.97;100.00
20350;BME280;10332;50.208;18.988;2022-09-09T06:34:07;97888.88;;;19.06;100.00
20350;BME280;10332;50.208;18.988;2022-09-09T06:36:37;97893.50;;;19.20;99.80
20350;BME280;10332;50.208;18.988;2022-09-09T06:39:07;97896.81;;;19.30;99.42
20350;BME280;10332;50.208;18.988;2022-09-09T06:41:41;97901.94;;;19.40;98.98
20350;BME280;10332;50.208;18.988;2022-09-09T06:44:10;97890.88;;;19.44;98.62
20350;BME280;10332;50.208;18.988;2022-09-09T06:46:39;97891.22;;;19.58;98.03
20350;BME280;10332;50.208;18.988;2022-09-09T06:49:08;97896.34;;;19.67;97.00
20350;BME280;10332;50.208;18.988;2022-09-09T06:51:38;97892.03;;;19.91;95.44
20350;BME280;10332;50.208;18.988;2022-09-09T06:54:12;97899.13;;;20.06;94.10
20350;BME280;10332;50.208;18.988;2022-09-09T06:56:41;97899.34;;;20.52;93.64
20350;BME280;10332;50.208;18.988;2022-09-09T06:59:11;97899.94;;;22.08;87.82
20350;BME280;10332;50.208;18.988;2022-09-09T07:01:42;97885.94;;;25.78;73.95
20350;BME280;10332;50.208;18.988;2022-09-09T07:04:18;97892.06;;;28.71;63.53
20350;BME280;10332;50.208;18.988;2022-09-09T07:06:46;97895.97;;;29.53;57.70
20350;BME280;10332;50.208;18.988;2022-09-09T07:09:15;97889.66;;;29.71;57.95
20350;BME280;10332;50.208;18.988;2022-09-09T07:11:47;97900.03;;;32.37;49.33
20350;BME280;10332;50.208;18.988;2022-09-09T07:14:15;97902.03;;;33.62;44.31
20350;BME280;10332;50.208;18.988;2022-09-09T07:16:44;97898.97;;;33.31;44.05
20350;BME280;10332;50.208;18.988;2022-09-09T07:19:14;97903.78;;;33.24;43.10
20350;BME280;10332;50.208;18.988;2022-09-09T07:21:42;97894.63;;;34.68;41.54
20350;BME280;10332;50.208;18.988;2022-09-09T07:24:11;97904.53;;;35.00;40.03
20350;BME280;10332;50.208;18.988;2022-09-09T07:26:40;97900.84;;;36.33;36.82
20350;BME280;10332;50.208;18.988;2022-09-09T07:29:08;97896.16;;;38.26;34.66
20350;BME280;10332;50.208;18.988;2022-09-09T07:31:38;97896.94;;;36.70;37.08
20350;BME280;10332;50.208;18.988;2022-09-09T07:34:07;97904.13;;;36.41;36.74
20350;BME280;10332;50.208;18.988;2022-09-09T07:36:38;97902.78;;;36.23;35.14
20350;BME280;10332;50.208;18.988;2022-09-09T07:39:09;97906.44;;;38.34;32.19
20350;BME280;10332;50.208;18.988;2022-09-09T07:41:44;97911.06;;;40.46;29.31
20350;BME280;10332;50.208;18.988;2022-09-09T07:44:16;97923.69;;;43.33;27.25
20350;BME280;10332;50.208;18.988;2022-09-09T07:46:50;97926.78;;;44.95;23.33
20350;BME280;10332;50.208;18.988;2022-09-09T07:49:17;97926.03;;;46.11;22.11
20350;BME280;10332;50.208;18.988;2022-09-09T07:51:52;97931.22;;;46.25;22.15
20350;BME280;10332;50.208;18.988;2022-09-09T07:54:20;97932.72;;;46.34;21.30
20350;BME280;10332;50.208;18.988;2022-09-09T07:56:52;97936.81;;;47.63;20.85
20350;BME280;10332;50.208;18.988;2022-09-09T07:59:21;97939.88;;;47.33;21.12
20350;BME280;10332;50.208;18.988;2022-09-09T08:01:51;97945.84;;;48.31;19.58
20350;BME280;10332;50.208;18.988;2022-09-09T08:04:23;97943.34;;;50.21;18.67
20350;BME280;10332;50.208;18.988;2022-09-09T08:06:56;97935.22;;;51.98;16.99
20350;BME280;10332;50.208;18.988;2022-09-09T08:09:25;97946.38;;;52.83;15.73
20350;BME280;10332;50.208;18.988;2022-09-09T08:11:55;97942.28;;;52.70;16.74
20350;BME280;10332;50.208;18.988;2022-09-09T08:14:27;97943.97;;;52.78;15.86
20350;BME280;10332;50.208;18.988;2022-09-09T08:16:55;97942.59;;;50.44;17.33
20350;BME280;10332;50.208;18.988;2022-09-09T08:19:23;97947.09;;;50.52;17.45
20350;BME280;10332;50.208;18.988;2022-09-09T08:21:50;97936.44;;;46.63;19.19
20350;BME280;10332;50.208;18.988;2022-09-09T08:24:18;97938.75;;;43.97;21.37
20350;BME280;10332;50.208;18.988;2022-09-09T08:26:48;97930.38;;;43.41;22.08
20350;BME280;10332;50.208;18.988;2022-09-09T08:29:17;97933.03;;;42.05;23.42
20350;BME280;10332;50.208;18.988;2022-09-09T08:31:49;97929.22;;;42.76;22.70
20350;BME280;10332;50.208;18.988;2022-09-09T08:34:18;97930.84;;;42.77;22.68
20350;BME280;10332;50.208;18.988;2022-09-09T08:36:48;97932.72;;;42.99;21.94
20350;BME280;10332;50.208;18.988;2022-09-09T08:39:20;97935.81;;;45.04;20.44
20350;BME280;10332;50.208;18.988;2022-09-09T08:42:24;97928.19;;;41.07;24.14
20350;BME280;10332;50.208;18.988;2022-09-09T08:50:37;97924.25;;;36.24;28.66
20350;BME280;10332;50.208;18.988;2022-09-09T08:56:03;97920.28;;;36.81;28.66
20350;BME280;10332;50.208;18.988;2022-09-09T08:58:48;97920.94;;;35.41;30.11
20350;BME280;10332;50.208;18.988;2022-09-09T09:12:58;97919.88;;;34.74;30.50
20350;BME280;10332;50.208;18.988;2022-09-09T09:15:33;97915.44;;;33.51;32.46
20350;BME280;10332;50.208;18.988;2022-09-09T09:18:05;97915.03;;;33.11;33.43
20350;BME280;10332;50.208;18.988;2022-09-09T09:20:45;97911.66;;;32.98;33.78
20350;BME280;10332;50.208;18.988;2022-09-09T09:23:23;97908.69;;;33.81;32.83
20350;BME280;10332;50.208;18.988;2022-09-09T09:25:59;97917.72;;;32.28;34.75
20350;BME280;10332;50.208;18.988;2022-09-09T09:28:32;97909.16;;;31.52;35.83
20350;BME280;10332;50.208;18.988;2022-09-09T09:31:09;97914.63;;;31.41;36.45
20350;BME280;10332;50.208;18.988;2022-09-09T09:33:50;97903.47;;;33.74;33.52
20350;BME280;10332;50.208;18.988;2022-09-09T09:36:33;97902.19;;;39.38;27.47
20350;BME280;10332;50.208;18.988;2022-09-09T09:39:03;97912.22;;;43.92;22.48
20350;BME280;10332;50.208;18.988;2022-09-09T09:41:53;97915.38;;;48.98;18.47
20350;BME280;10332;50.208;18.988;2022-09-09T09:44:30;97918.63;;;44.31;21.25
20350;BME280;10332;50.208;18.988;2022-09-09T09:47:13;97907.84;;;41.72;24.00
20350;BME280;10332;50.208;18.988;2022-09-09T09:49:58;97907.16;;;45.38;20.47
20350;BME280;10332;50.208;18.988;2022-09-09T09:52:29;97919.66;;;44.47;20.96
20350;BME280;10332;50.208;18.988;2022-09-09T09:54:58;97918.09;;;42.82;21.59
20350;BME280;10332;50.208;18.988;2022-09-09T09:57:34;97909.00;;;42.64;21.85
20350;BME280;10332;50.208;18.988;2022-09-09T10:00:22;97917.97;;;41.93;21.89
20350;BME280;10332;50.208;18.988;2022-09-09T10:02:50;97922.28;;;41.13;22.78
20350;BME280;10332;50.208;18.988;2022-09-09T10:05:26;97910.91;;;43.72;20.14
20350;BME280;10332;50.208;18.988;2022-09-09T10:08:14;97915.59;;;44.15;19.83
20350;BME280;10332;50.208;18.988;2022-09-09T10:13:52;97917.25;;;43.64;20.41
20350;BME280;10332;50.208;18.988;2022-09-09T10:19:08;97913.41;;;41.44;22.96
20350;BME280;10332;50.208;18.988;2022-09-09T10:21:59;97921.91;;;42.01;22.43
20350;BME280;10332;50.208;18.988;2022-09-09T10:36:25;97939.41;;;42.36;21.53
20350;BME280;10332;50.208;18.988;2022-09-09T10:42:12;97947.69;;;40.64;23.77
20350;BME280;10332;50.208;18.988;2022-09-09T10:45:15;97943.63;;;41.17;23.16
20350;BME280;10332;50.208;18.988;2022-09-09T10:50:52;97966.69;;;55.99;12.53
20350;BME280;10332;50.208;18.988;2022-09-09T10:56:34;97946.28;;;50.74;14.69
20350;BME280;10332;50.208;18.988;2022-09-09T10:59:16;97936.97;;;47.82;16.55
20350;BME280;10332;50.208;18.988;2022-09-09T11:02:22;97936.31;;;51.86;14.05
20350;BME280;10332;50.208;18.988;2022-09-09T11:05:10;97946.03;;;52.92;13.34
20350;BME280;10332;50.208;18.988;2022-09-09T11:10:44;97939.91;;;46.60;15.92
20350;BME280;10332;50.208;18.988;2022-09-09T11:16:40;97937.50;;;50.99;13.19
20350;BME280;10332;50.208;18.988;2022-09-09T11:19:44;97932.72;;;48.76;14.64
20350;BME280;10332;50.208;18.988;2022-09-09T11:25:30;97927.69;;;44.31;18.29
20350;BME280;10332;50.208;18.988;2022-09-09T11:28:40;97931.44;;;53.20;12.86
20350;BME280;10332;50.208;18.988;2022-09-09T11:31:34;97946.25;;;54.47;10.61
20350;BME280;10332;50.208;18.988;2022-09-09T11:38:00;97943.81;;;56.63;9.83
20350;BME280;10332;50.208;18.988;2022-09-09T11:40:20;97944.06;;;56.31;10.28
20350;BME280;10332;50.208;18.988;2022-09-09T11:43:16;97962.34;;;57.97;9.69
20350;BME280;10332;50.208;18.988;2022-09-09T11:45:56;97958.69;;;61.52;7.87
20350;BME280;10332;50.208;18.988;2022-09-09T11:48:36;97956.78;;;60.91;8.15
20350;BME280;10332;50.208;18.988;2022-09-09T11:51:10;97964.66;;;59.23;8.80
20350;BME280;10332;50.208;18.988;2022-09-09T11:54:00;97943.13;;;60.08;8.14
20350;BME280;10332;50.208;18.988;2022-09-09T11:56:42;97948.34;;;60.26;8.80
20350;BME280;10332;50.208;18.988;2022-09-09T11:59:31;97949.50;;;60.45;8.02
20350;BME280;10332;50.208;18.988;2022-09-09T12:02:23;97950.00;;;59.71;8.14
20350;BME280;10332;50.208;18.988;2022-09-09T12:07:38;97930.41;;;52.32;11.85
20350;BME280;10332;50.208;18.988;2022-09-09T12:10:37;97928.94;;;50.85;12.98
20350;BME280;10332;50.208;18.988;2022-09-09T12:13:22;97925.88;;;52.17;12.18
20350;BME280;10332;50.208;18.988;2022-09-09T12:15:56;97928.56;;;53.06;11.23
20350;BME280;10332;50.208;18.988;2022-09-09T12:18:37;97930.28;;;54.47;10.79
20350;BME280;10332;50.208;18.988;2022-09-09T12:24:25;97933.66;;;52.86;11.12
20350;BME280;10332;50.208;18.988;2022-09-09T12:27:18;97924.59;;;55.08;10.54
20350;BME280;10332;50.208;18.988;2022-09-09T12:32:29;97924.53;;;55.40;10.54
20350;BME280;10332;50.208;18.988;2022-09-09T12:35:09;97933.81;;;54.19;10.62
20350;BME280;10332;50.208;18.988;2022-09-09T12:42:49;97928.06;;;53.58;11.38
20350;BME280;10332;50.208;18.988;2022-09-09T12:45:26;97927.50;;;51.51;12.12
20350;BME280;10332;50.208;18.988;2022-09-09T12:48:08;97918.22;;;50.14;12.73
20350;BME280;10332;50.208;18.988;2022-09-09T12:50:46;97914.66;;;49.17;13.38
20350;BME280;10332;50.208;18.988;2022-09-09T12:53:45;97919.88;;;49.03;13.26
20350;BME280;10332;50.208;18.988;2022-09-09T12:56:27;97909.13;;;47.91;13.72
20350;BME280;10332;50.208;18.988;2022-09-09T12:58:58;97901.97;;;47.09;14.51
20350;BME280;10332;50.208;18.988;2022-09-09T13:01:32;97908.59;;;46.92;14.70
20350;BME280;10332;50.208;18.988;2022-09-09T13:04:01;97901.91;;;46.81;15.01
20350;BME280;10332;50.208;18.988;2022-09-09T13:06:30;97906.69;;;45.78;15.56
20350;BME280;10332;50.208;18.988;2022-09-09T13:09:00;97901.97;;;45.16;15.81
20350;BME280;10332;50.208;18.988;2022-09-09T13:11:51;97894.03;;;44.08;16.64
20350;BME280;10332;50.208;18.988;2022-09-09T13:14:35;97890.31;;;42.43;17.74
20350;BME280;10332;50.208;18.988;2022-09-09T13:17:19;97886.41;;;40.88;19.20
20350;BME280;10332;50.208;18.988;2022-09-09T13:19:49;97886.59;;;39.90;19.95
20350;BME280;10332;50.208;18.988;2022-09-09T13:22:35;97876.00;;;38.94;20.53
20350;BME280;10332;50.208;18.988;2022-09-09T13:27:39;97872.44;;;37.64;21.47
20350;BME280;10332;50.208;18.988;2022-09-09T13:30:26;97869.56;;;37.06;22.65
20350;BME280;10332;50.208;18.988;2022-09-09T13:38:17;97860.94;;;36.88;23.24
20350;BME280;10332;50.208;18.988;2022-09-09T13:41:08;97855.84;;;37.21;22.93
20350;BME280;10332;50.208;18.988;2022-09-09T13:43:45;97863.59;;;36.99;22.62
20350;BME280;10332;50.208;18.988;2022-09-09T13:46:39;97849.00;;;36.79;23.20
20350;BME280;10332;50.208;18.988;2022-09-09T13:51:43;97836.84;;;37.84;22.68
20350;BME280;10332;50.208;18.988;2022-09-09T13:54:15;97845.16;;;38.94;22.36
20350;BME280;10332;50.208;18.988;2022-09-09T13:56:48;97846.03;;;40.38;20.77
20350;BME280;10332;50.208;18.988;2022-09-09T13:59:19;97835.91;;;41.61;19.87
20350;BME280;10332;50.208;18.988;2022-09-09T14:01:47;97835.94;;;41.38;19.65
20350;BME280;10332;50.208;18.988;2022-09-09T14:04:16;97836.44;;;41.40;19.76
20350;BME280;10332;50.208;18.988;2022-09-09T14:06:47;97825.56;;;42.11;19.69
20350;BME280;10332;50.208;18.988;2022-09-09T14:09:16;97839.97;;;42.57;19.14
20350;BME280;10332;50.208;18.988;2022-09-09T14:11:45;97829.34;;;42.15;19.76
20350;BME280;10332;50.208;18.988;2022-09-09T14:14:13;97829.03;;;41.05;20.61
20350;BME280;10332;50.208;18.988;2022-09-09T14:16:40;97831.28;;;39.93;21.23
20350;BME280;10332;50.208;18.988;2022-09-09T14:19:08;97826.84;;;38.94;21.56
20350;BME280;10332;50.208;18.988;2022-09-09T14:21:36;97819.31;;;37.90;22.39
20350;BME280;10332;50.208;18.988;2022-09-09T14:24:04;97821.94;;;37.42;23.18
20350;BME280;10332;50.208;18.988;2022-09-09T14:26:32;97822.16;;;37.07;23.37
20350;BME280;10332;50.208;18.988;2022-09-09T14:28:59;97828.91;;;36.70;24.13
20350;BME280;10332;50.208;18.988;2022-09-09T14:31:29;97822.81;;;36.19;24.44
20350;BME280;10332;50.208;18.988;2022-09-09T14:33:56;97818.28;;;35.53;25.17
20350;BME280;10332;50.208;18.988;2022-09-09T14:36:24;97822.03;;;34.96;25.69
20350;BME280;10332;50.208;18.988;2022-09-09T14:38:51;97818.91;;;34.52;26.32
20350;BME280;10332;50.208;18.988;2022-09-09T14:41:19;97817.25;;;34.03;27.30
20350;BME280;10332;50.208;18.988;2022-09-09T14:43:49;97815.03;;;33.53;28.04
20350;BME280;10332;50.208;18.988;2022-09-09T14:46:21;97814.91;;;33.16;28.28
20350;BME280;10332;50.208;18.988;2022-09-09T14:48:49;97820.41;;;32.94;28.61
20350;BME280;10332;50.208;18.988;2022-09-09T14:51:22;97814.88;;;32.62;29.41
20350;BME280;10332;50.208;18.988;2022-09-09T14:53:57;97817.22;;;32.31;29.56
20350;BME280;10332;50.208;18.988;2022-09-09T14:56:30;97820.75;;;32.15;29.54
20350;BME280;10332;50.208;18.988;2022-09-09T14:58:59;97816.41;;;31.92;30.57
20350;BME280;10332;50.208;18.988;2022-09-09T15:01:29;97825.56;;;31.74;30.80
20350;BME280;10332;50.208;18.988;2022-09-09T15:04:03;97817.53;;;31.62;30.95
20350;BME280;10332;50.208;18.988;2022-09-09T15:06:34;97816.56;;;31.52;31.45
20350;BME280;10332;50.208;18.988;2022-09-09T15:09:05;97819.22;;;31.47;31.62